sensor_id;sensor_type;location;lat;lon;timestamp;P1;durP1;ratioP1;P2;durP2;ratioP2
35917;SDS011;22011;59.912;30.300;2023-03-14T00:01:07;3.20;;;1.17;;
35917;SDS011;22011;59.912;30.300;2023-03-14T00:03:35;2.45;;;1.42;;
35917;SDS011;22011;59.912;30.300;2023-03-14T00:06:03;2.75;;;1.20;;
35917;SDS011;22011;59.912;30.300;2023-03-14T00:08:31;1.67;;;1.40;;
35917;SDS011;22011;59.912;30.300;2023-03-14T00:11:03;4.43;;;1.33;;
35917;SDS011;22011;59.912;30.300;2023-03-14T00:13:33;2.35;;;1.35;;
35917;SDS011;22011;59.912;30.300;2023-03-14T00:16:04;2.13;;;1.08;;
35917;SDS011;22011;59.912;30.300;2023-03-14T00:18:32;3.15;;;1.25;;
35917;SDS011;22011;59.912;30.300;2023-03-14T00:21:00;1.70;;;1.05;;
35917;SDS011;22011;59.912;30.300;2023-03-14T00:23:30;2.78;;;1.20;;
35917;SDS011;22011;59.912;30.300;2023-03-14T00:25:58;2.45;;;1.50;;
35917;SDS011;22011;59.912;30.300;2023-03-14T00:28:27;2.08;;;1.33;;
35917;SDS011;22011;59.912;30.300;2023-03-14T00:30:56;5.80;;;1.25;;
35917;SDS011;22011;59.912;30.300;2023-03-14T00:33:24;2.70;;;1.50;;
35917;SDS011;22011;59.912;30.300;2023-03-14T00:35:52;2.20;;;1.48;;
35917;SDS011;22011;59.912;30.300;2023-03-14T00:38:21;3.85;;;1.38;;
35917;SDS011;22011;59.912;30.300;2023-03-14T00:40:50;2.97;;;1.10;;
35917;SDS011;22011;59.912;30.300;2023-03-14T00:43:18;2.40;;;1.25;;
35917;SDS011;22011;59.912;30.300;2023-03-14T00:45:47;1.98;;;0.90;;
35917;SDS011;22011;59.912;30.300;2023-03-14T00:48:17;2.53;;;1.13;;
35917;SDS011;22011;59.912;30.300;2023-03-14T00:50:44;2.85;;;1.40;;
35917;SDS011;22011;59.912;30.300;2023-03-14T00:53:14;3.03;;;1.00;;
35917;SDS011;22011;59.912;30.300;2023-03-14T00:55:42;4.32;;;1.30;;
35917;SDS011;22011;59.912;30.300;2023-03-14T00:58:11;1.45;;;1.23;;
35917;SDS011;22011;59.912;30.300;2023-03-14T01:00:39;1.42;;;1.10;;
35917;SDS011;22011;59.912;30.300;2023-03-14T01:03:07;1.42;;;1.02;;
35917;SDS011;22011;59.912;30.300;2023-03-14T01:05:37;4.80;;;1.73;;
35917;SDS011;22011;59.912;30.300;2023-03-14T01:08:06;2.17;;;1.35;;
35917;SDS011;22011;59.912;30.300;2023-03-14T01:10:34;1.67;;;1.13;;
35917;SDS011;22011;59.912;30.300;2023-03-14T01:13:04;2.45;;;0.98;;
35917;SDS011;22011;59.912;30.300;2023-03-14T01:15:32;1.27;;;0.93;;
35917;SDS011;22011;59.912;30.300;2023-03-14T01:18:00;5.25;;;1.40;;
35917;SDS011;22011;59.912;30.300;2023-03-14T01:20:27;3.03;;;1.60;;
35917;SDS011;22011;59.912;30.300;2023-03-14T01:22:56;3.13;;;1.10;;
35917;SDS011;22011;59.912;30.300;2023-03-14T01:25:24;7.68;;;1.10;;
35917;SDS011;22011;59.912;30.300;2023-03-14T01:27:52;2.00;;;1.13;;
35917;SDS011;22011;59.912;30.300;2023-03-14T01:30:19;9.23;;;1.83;;
35917;SDS011;22011;59.912;30.300;2023-03-14T01:32:47;2.42;;;1.20;;
35917;SDS011;22011;59.912;30.300;2023-03-14T01:35:14;1.63;;;1.00;;
35917;SDS011;22011;59.912;30.300;2023-03-14T01:37:42;5.90;;;2.45;;
35917;SDS011;22011;59.912;30.300;2023-03-14T01:40:17;2.38;;;1.10;;
35917;SDS011;22011;59.912;30.300;2023-03-14T01:42:45;1.83;;;1.15;;
35917;SDS011;22011;59.912;30.300;2023-03-14T01:48:18;1.50;;;1.33;;
35917;SDS011;22011;59.912;30.300;2023-03-14T01:50:46;2.63;;;0.93;;
35917;SDS011;22011;59.912;30.300;2023-03-14T01:53:14;2.28;;;0.95;;
35917;SDS011;22011;59.912;30.300;2023-03-14T01:55:44;1.58;;;1.15;;
35917;SDS011;22011;59.912;30.300;2023-03-14T01:58:12;1.38;;;1.05;;
35917;SDS011;22011;59.912;30.300;2023-03-14T02:00:41;2.22;;;1.08;;
35917;SDS011;22011;59.912;30.300;2023-03-14T02:03:09;3.80;;;1.38;;
35917;SDS011;22011;59.912;30.300;2023-03-14T02:05:41;3.92;;;0.82;;
35917;SDS011;22011;59.912;30.300;2023-03-14T02:08:17;1.65;;;0.90;;
35917;SDS011;22011;59.912;30.300;2023-03-14T02:10:54;1.25;;;1.13;;
35917;SDS011;22011;59.912;30.300;2023-03-14T02:13:45;1.90;;;1.25;;
35917;SDS011;22011;59.912;30.300;2023-03-14T02:16:34;2.08;;;1.60;;
35917;SDS011;22011;59.912;30.300;2023-03-14T02:19:22;6.82;;;1.33;;
35917;SDS011;22011;59.912;30.300;2023-03-14T02:22:08;1.42;;;1.02;;
35917;SDS011;22011;59.912;30.300;2023-03-14T02:24:46;2.38;;;0.85;;
35917;SDS011;22011;59.912;30.300;2023-03-14T02:27:25;2.33;;;1.13;;
35917;SDS011;22011;59.912;30.300;2023-03-14T02:29:54;2.58;;;1.02;;
35917;SDS011;22011;59.912;30.300;2023-03-14T02:32:27;1.15;;;1.00;;
35917;SDS011;22011;59.912;30.300;2023-03-14T02:37:27;1.48;;;1.02;;
35917;SDS011;22011;59.912;30.300;2023-03-14T02:40:03;2.08;;;1.23;;
35917;SDS011;22011;59.912;30.300;2023-03-14T02:42:34;1.50;;;1.15;;
35917;SDS011;22011;59.912;30.300;2023-03-14T02:48:04;1.92;;;1.10;;
35917;SDS011;22011;59.912;30.300;2023-03-14T02:50:37;1.65;;;1.17;;
35917;SDS011;22011;59.912;30.300;2023-03-14T02:53:05;3.55;;;1.10;;
35917;SDS011;22011;59.912;30.300;2023-03-14T02:55:33;1.25;;;1.05;;
35917;SDS011;22011;59.912;30.300;2023-03-14T02:58:08;1.40;;;1.30;;
35917;SDS011;22011;59.912;30.300;2023-03-14T03:00:36;2.28;;;1.70;;
35917;SDS011;22011;59.912;30.300;2023-03-14T03:03:06;5.88;;;1.40;;
35917;SDS011;22011;59.912;30.300;2023-03-14T03:05:34;10.63;;;2.75;;
35917;SDS011;22011;59.912;30.300;2023-03-14T03:08:02;1.35;;;1.20;;
35917;SDS011;22011;59.912;30.300;2023-03-14T03:10:31;2.25;;;1.20;;
35917;SDS011;22011;59.912;30.300;2023-03-14T03:12:59;5.07;;;1.35;;
35917;SDS011;22011;59.912;30.300;2023-03-14T03:15:28;2.00;;;1.45;;
35917;SDS011;22011;59.912;30.300;2023-03-14T03:17:57;2.05;;;1.52;;
35917;SDS011;22011;59.912;30.300;2023-03-14T03:20:25;3.03;;;1.40;;
35917;SDS011;22011;59.912;30.300;2023-03-14T03:22:52;5.25;;;1.65;;
35917;SDS011;22011;59.912;30.300;2023-03-14T03:25:20;5.75;;;1.77;;
35917;SDS011;22011;59.912;30.300;2023-03-14T03:27:49;2.05;;;1.20;;
35917;SDS011;22011;59.912;30.300;2023-03-14T03:30:18;2.42;;;1.65;;
35917;SDS011;22011;59.912;30.300;2023-03-14T03:32:48;3.17;;;1.83;;
35917;SDS011;22011;59.912;30.300;2023-03-14T03:35:16;1.80;;;1.48;;
35917;SDS011;22011;59.912;30.300;2023-03-14T03:37:43;1.30;;;1.20;;
35917;SDS011;22011;59.912;30.300;2023-03-14T03:40:11;3.72;;;1.52;;
35917;SDS011;22011;59.912;30.300;2023-03-14T03:42:38;2.13;;;1.58;;
35917;SDS011;22011;59.912;30.300;2023-03-14T03:45:09;1.80;;;1.33;;
35917;SDS011;22011;59.912;30.300;2023-03-14T03:47:43;2.35;;;1.50;;
35917;SDS011;22011;59.912;30.300;2023-03-14T03:50:12;4.40;;;1.65;;
35917;SDS011;22011;59.912;30.300;2023-03-14T03:52:40;3.97;;;2.17;;
35917;SDS011;22011;59.912;30.300;2023-03-14T03:55:08;5.18;;;2.38;;
35917;SDS011;22011;59.912;30.300;2023-03-14T03:57:35;5.80;;;3.97;;
35917;SDS011;22011;59.912;30.300;2023-03-14T04:00:04;4.55;;;1.90;;
35917;SDS011;22011;59.912;30.300;2023-03-14T04:02:40;5.72;;;2.97;;
35917;SDS011;22011;59.912;30.300;2023-03-14T04:05:11;5.28;;;2.95;;
35917;SDS011;22011;59.912;30.300;2023-03-14T04:07:46;4.07;;;2.40;;
35917;SDS011;22011;59.912;30.300;2023-03-14T04:10:18;6.80;;;3.25;;
35917;SDS011;22011;59.912;30.300;2023-03-14T04:13:06;7.30;;;3.10;;
35917;SDS011;22011;59.912;30.300;2023-03-14T04:15:34;2.83;;;1.70;;
35917;SDS011;22011;59.912;30.300;2023-03-14T04:18:08;7.53;;;1.85;;
35917;SDS011;22011;59.912;30.300;2023-03-14T04:20:37;8.32;;;4.65;;
35917;SDS011;22011;59.912;30.300;2023-03-14T04:23:05;15.73;;;7.47;;
35917;SDS011;22011;59.912;30.300;2023-03-14T04:25:32;17.98;;;7.80;;
35917;SDS011;22011;59.912;30.300;2023-03-14T04:28:03;21.63;;;6.63;;
35917;SDS011;22011;59.912;30.300;2023-03-14T04:30:32;11.05;;;5.82;;
35917;SDS011;22011;59.912;30.300;2023-03-14T04:33:09;8.82;;;4.10;;
35917;SDS011;22011;59.912;30.300;2023-03-14T04:35:47;9.02;;;2.92;;
35917;SDS011;22011;59.912;30.300;2023-03-14T04:40:45;8.90;;;2.63;;
35917;SDS011;22011;59.912;30.300;2023-03-14T04:43:14;13.98;;;3.00;;
35917;SDS011;22011;59.912;30.300;2023-03-14T04:45:47;3.70;;;2.25;;
35917;SDS011;22011;59.912;30.300;2023-03-14T04:48:15;6.28;;;4.07;;
35917;SDS011;22011;59.912;30.300;2023-03-14T04:50:43;6.93;;;3.50;;
35917;SDS011;22011;59.912;30.300;2023-03-14T04:53:13;7.72;;;3.45;;
35917;SDS011;22011;59.912;30.300;2023-03-14T04:55:47;7.82;;;3.63;;
35917;SDS011;22011;59.912;30.300;2023-03-14T04:58:15;10.02;;;4.43;;
35917;SDS011;22011;59.912;30.300;2023-03-14T05:00:44;12.70;;;6.13;;
35917;SDS011;22011;59.912;30.300;2023-03-14T05:03:35;14.40;;;7.95;;
35917;SDS011;22011;59.912;30.300;2023-03-14T05:06:13;13.13;;;6.60;;
35917;SDS011;22011;59.912;30.300;2023-03-14T05:08:54;14.23;;;6.18;;
35917;SDS011;22011;59.912;30.300;2023-03-14T05:11:38;11.10;;;5.72;;
35917;SDS011;22011;59.912;30.300;2023-03-14T05:14:20;10.75;;;5.80;;
35917;SDS011;22011;59.912;30.300;2023-03-14T05:17:20;10.00;;;5.30;;
35917;SDS011;22011;59.912;30.300;2023-03-14T05:20:16;17.38;;;6.10;;
35917;SDS011;22011;59.912;30.300;2023-03-14T05:22:54;16.10;;;7.00;;
35917;SDS011;22011;59.912;30.300;2023-03-14T05:25:44;9.60;;;5.03;;
35917;SDS011;22011;59.912;30.300;2023-03-14T05:28:31;13.47;;;5.33;;
35917;SDS011;22011;59.912;30.300;2023-03-14T05:31:11;11.88;;;6.70;;
35917;SDS011;22011;59.912;30.300;2023-03-14T05:33:52;16.10;;;7.85;;
35917;SDS011;22011;59.912;30.300;2023-03-14T05:36:41;20.67;;;7.47;;
35917;SDS011;22011;59.912;30.300;2023-03-14T05:39:20;17.73;;;6.97;;
35917;SDS011;22011;59.912;30.300;2023-03-14T05:42:09;16.50;;;6.20;;
35917;SDS011;22011;59.912;30.300;2023-03-14T05:44:50;10.93;;;5.28;;
35917;SDS011;22011;59.912;30.300;2023-03-14T05:47:39;11.15;;;6.05;;
35917;SDS011;22011;59.912;30.300;2023-03-14T05:50:29;28.88;;;8.82;;
35917;SDS011;22011;59.912;30.300;2023-03-14T05:53:11;15.50;;;8.27;;
35917;SDS011;22011;59.912;30.300;2023-03-14T05:55:52;15.52;;;7.82;;
35917;SDS011;22011;59.912;30.300;2023-03-14T05:58:33;14.52;;;6.22;;
35917;SDS011;22011;59.912;30.300;2023-03-14T06:01:23;8.02;;;4.55;;
35917;SDS011;22011;59.912;30.300;2023-03-14T06:04:06;7.55;;;4.57;;
35917;SDS011;22011;59.912;30.300;2023-03-14T06:06:34;8.30;;;4.63;;
35917;SDS011;22011;59.912;30.300;2023-03-14T06:09:02;6.97;;;4.80;;
35917;SDS011;22011;59.912;30.300;2023-03-14T06:11:32;13.88;;;5.22;;
35917;SDS011;22011;59.912;30.300;2023-03-14T06:14:02;16.00;;;7.15;;
35917;SDS011;22011;59.912;30.300;2023-03-14T06:16:29;31.08;;;9.07;;
35917;SDS011;22011;59.912;30.300;2023-03-14T06:18:58;26.85;;;6.97;;
35917;SDS011;22011;59.912;30.300;2023-03-14T06:21:28;20.88;;;6.53;;
35917;SDS011;22011;59.912;30.300;2023-03-14T06:23:56;15.98;;;6.93;;
35917;SDS011;22011;59.912;30.300;2023-03-14T06:26:26;18.30;;;6.40;;
35917;SDS011;22011;59.912;30.300;2023-03-14T06:28:54;17.40;;;7.68;;
35917;SDS011;22011;59.912;30.300;2023-03-14T06:31:23;31.75;;;6.45;;
35917;SDS011;22011;59.912;30.300;2023-03-14T06:33:59;29.75;;;8.38;;
35917;SDS011;22011;59.912;30.300;2023-03-14T06:36:30;25.77;;;5.97;;
35917;SDS011;22011;59.912;30.300;2023-03-14T06:38:58;24.52;;;7.65;;
35917;SDS011;22011;59.912;30.300;2023-03-14T06:41:27;16.55;;;7.82;;
35917;SDS011;22011;59.912;30.300;2023-03-14T06:43:57;21.07;;;6.73;;
35917;SDS011;22011;59.912;30.300;2023-03-14T06:46:25;20.27;;;7.40;;
35917;SDS011;22011;59.912;30.300;2023-03-14T06:48:53;37.67;;;8.80;;
35917;SDS011;22011;59.912;30.300;2023-03-14T06:51:21;38.38;;;10.45;;
35917;SDS011;22011;59.912;30.300;2023-03-14T06:53:49;28.40;;;8.02;;
35917;SDS011;22011;59.912;30.300;2023-03-14T06:56:20;23.30;;;5.63;;
35917;SDS011;22011;59.912;30.300;2023-03-14T06:58:47;13.75;;;5.30;;
35917;SDS011;22011;59.912;30.300;2023-03-14T07:01:17;27.50;;;5.63;;
35917;SDS011;22011;59.912;30.300;2023-03-14T07:03:51;21.20;;;5.72;;
35917;SDS011;22011;59.912;30.300;2023-03-14T07:06:21;13.15;;;3.67;;
35917;SDS011;22011;59.912;30.300;2023-03-14T07:08:49;24.02;;;3.97;;
35917;SDS011;22011;59.912;30.300;2023-03-14T07:11:17;21.30;;;4.60;;
35917;SDS011;22011;59.912;30.300;2023-03-14T07:13:45;14.23;;;5.70;;
35917;SDS011;22011;59.912;30.300;2023-03-14T07:16:14;10.93;;;3.67;;
35917;SDS011;22011;59.912;30.300;2023-03-14T07:18:41;9.40;;;3.95;;
35917;SDS011;22011;59.912;30.300;2023-03-14T07:21:11;15.52;;;5.93;;
35917;SDS011;22011;59.912;30.300;2023-03-14T07:23:39;22.00;;;6.68;;
35917;SDS011;22011;59.912;30.300;2023-03-14T07:26:07;11.98;;;4.10;;
35917;SDS011;22011;59.912;30.300;2023-03-14T07:28:38;19.52;;;4.22;;
35917;SDS011;22011;59.912;30.300;2023-03-14T07:31:12;24.50;;;3.60;;
35917;SDS011;22011;59.912;30.300;2023-03-14T07:33:40;40.47;;;4.75;;
35917;SDS011;22011;59.912;30.300;2023-03-14T07:36:10;20.88;;;7.25;;
35917;SDS011;22011;59.912;30.300;2023-03-14T07:38:42;23.55;;;7.45;;
35917;SDS011;22011;59.912;30.300;2023-03-14T07:41:49;16.92;;;4.25;;
35917;SDS011;22011;59.912;30.300;2023-03-14T07:44:32;92.80;;;12.15;;
35917;SDS011;22011;59.912;30.300;2023-03-14T07:47:00;101.65;;;13.55;;
35917;SDS011;22011;59.912;30.300;2023-03-14T07:49:27;38.95;;;6.18;;
35917;SDS011;22011;59.912;30.300;2023-03-14T07:51:56;27.23;;;6.15;;
35917;SDS011;22011;59.912;30.300;2023-03-14T07:54:24;26.63;;;5.93;;
35917;SDS011;22011;59.912;30.300;2023-03-14T07:56:52;10.07;;;4.32;;
35917;SDS011;22011;59.912;30.300;2023-03-14T07:59:20;12.23;;;4.70;;
35917;SDS011;22011;59.912;30.300;2023-03-14T08:01:47;17.55;;;6.47;;
35917;SDS011;22011;59.912;30.300;2023-03-14T08:04:15;25.55;;;7.45;;
35917;SDS011;22011;59.912;30.300;2023-03-14T08:06:43;14.77;;;6.00;;
35917;SDS011;22011;59.912;30.300;2023-03-14T08:09:12;22.30;;;8.27;;
35917;SDS011;22011;59.912;30.300;2023-03-14T08:11:39;24.85;;;6.32;;
35917;SDS011;22011;59.912;30.300;2023-03-14T08:14:07;17.58;;;6.50;;
35917;SDS011;22011;59.912;30.300;2023-03-14T08:16:34;15.10;;;6.15;;
35917;SDS011;22011;59.912;30.300;2023-03-14T08:19:02;12.60;;;5.45;;
35917;SDS011;22011;59.912;30.300;2023-03-14T08:21:30;11.57;;;5.20;;
35917;SDS011;22011;59.912;30.300;2023-03-14T08:23:57;14.50;;;7.55;;
35917;SDS011;22011;59.912;30.300;2023-03-14T08:26:26;23.88;;;10.05;;
35917;SDS011;22011;59.912;30.300;2023-03-14T08:28:54;20.88;;;7.57;;
35917;SDS011;22011;59.912;30.300;2023-03-14T08:31:22;23.58;;;8.98;;
35917;SDS011;22011;59.912;30.300;2023-03-14T08:33:50;15.00;;;5.97;;
35917;SDS011;22011;59.912;30.300;2023-03-14T08:36:19;15.40;;;6.55;;
35917;SDS011;22011;59.912;30.300;2023-03-14T08:38:46;32.25;;;7.47;;
35917;SDS011;22011;59.912;30.300;2023-03-14T08:41:14;12.50;;;6.05;;
35917;SDS011;22011;59.912;30.300;2023-03-14T08:43:44;12.13;;;6.70;;
35917;SDS011;22011;59.912;30.300;2023-03-14T08:46:11;17.05;;;6.47;;
35917;SDS011;22011;59.912;30.300;2023-03-14T08:48:39;17.50;;;6.38;;
35917;SDS011;22011;59.912;30.300;2023-03-14T08:51:07;15.85;;;5.72;;
35917;SDS011;22011;59.912;30.300;2023-03-14T08:53:36;19.23;;;5.72;;
35917;SDS011;22011;59.912;30.300;2023-03-14T08:56:04;10.65;;;5.45;;
35917;SDS011;22011;59.912;30.300;2023-03-14T08:58:32;34.83;;;7.22;;
35917;SDS011;22011;59.912;30.300;2023-03-14T09:01:02;121.22;;;12.75;;
35917;SDS011;22011;59.912;30.300;2023-03-14T09:03:30;23.88;;;6.78;;
35917;SDS011;22011;59.912;30.300;2023-03-14T09:06:01;17.05;;;5.97;;
35917;SDS011;22011;59.912;30.300;2023-03-14T09:08:30;19.15;;;7.60;;
35917;SDS011;22011;59.912;30.300;2023-03-14T09:10:58;157.38;;;20.73;;
35917;SDS011;22011;59.912;30.300;2023-03-14T09:13:25;14.90;;;6.50;;
35917;SDS011;22011;59.912;30.300;2023-03-14T09:15:53;28.73;;;5.93;;
35917;SDS011;22011;59.912;30.300;2023-03-14T09:18:23;20.58;;;7.47;;
35917;SDS011;22011;59.912;30.300;2023-03-14T09:20:51;15.25;;;6.70;;
35917;SDS011;22011;59.912;30.300;2023-03-14T09:23:18;16.20;;;6.25;;
35917;SDS011;22011;59.912;30.300;2023-03-14T09:25:46;20.77;;;6.70;;
35917;SDS011;22011;59.912;30.300;2023-03-14T09:28:13;17.17;;;6.93;;
35917;SDS011;22011;59.912;30.300;2023-03-14T09:30:41;47.55;;;8.85;;
35917;SDS011;22011;59.912;30.300;2023-03-14T09:33:08;37.25;;;7.68;;
35917;SDS011;22011;59.912;30.300;2023-03-14T09:35:37;11.88;;;6.70;;
35917;SDS011;22011;59.912;30.300;2023-03-14T09:38:05;21.48;;;6.90;;
35917;SDS011;22011;59.912;30.300;2023-03-14T09:40:34;22.80;;;8.55;;
35917;SDS011;22011;59.912;30.300;2023-03-14T09:43:03;16.95;;;6.90;;
35917;SDS011;22011;59.912;30.300;2023-03-14T09:45:32;18.25;;;6.57;;
35917;SDS011;22011;59.912;30.300;2023-03-14T09:48:03;9.45;;;5.95;;
35917;SDS011;22011;59.912;30.300;2023-03-14T09:50:33;22.90;;;7.22;;
35917;SDS011;22011;59.912;30.300;2023-03-14T09:53:08;16.58;;;6.75;;
35917;SDS011;22011;59.912;30.300;2023-03-14T09:55:39;21.90;;;6.25;;
35917;SDS011;22011;59.912;30.300;2023-03-14T10:00:38;11.07;;;5.75;;
35917;SDS011;22011;59.912;30.300;2023-03-14T10:03:14;18.42;;;6.63;;
35917;SDS011;22011;59.912;30.300;2023-03-14T10:05:50;22.52;;;6.93;;
35917;SDS011;22011;59.912;30.300;2023-03-14T10:08:17;15.30;;;6.25;;
35917;SDS011;22011;59.912;30.300;2023-03-14T10:10:45;32.78;;;7.03;;
35917;SDS011;22011;59.912;30.300;2023-03-14T10:13:14;17.58;;;5.65;;
35917;SDS011;22011;59.912;30.300;2023-03-14T10:15:47;34.13;;;8.07;;
35917;SDS011;22011;59.912;30.300;2023-03-14T10:18:18;51.13;;;9.57;;
35917;SDS011;22011;59.912;30.300;2023-03-14T10:20:46;22.70;;;6.53;;
35917;SDS011;22011;59.912;30.300;2023-03-14T10:23:22;19.90;;;6.70;;
35917;SDS011;22011;59.912;30.300;2023-03-14T10:25:59;36.88;;;6.68;;
35917;SDS011;22011;59.912;30.300;2023-03-14T10:28:32;26.90;;;6.65;;
35917;SDS011;22011;59.912;30.300;2023-03-14T10:31:04;37.45;;;7.53;;
35917;SDS011;22011;59.912;30.300;2023-03-14T10:33:32;63.85;;;17.13;;
35917;SDS011;22011;59.912;30.300;2023-03-14T10:36:02;52.80;;;11.63;;
35917;SDS011;22011;59.912;30.300;2023-03-14T10:38:33;30.40;;;9.20;;
35917;SDS011;22011;59.912;30.300;2023-03-14T10:41:02;27.90;;;7.30;;
35917;SDS011;22011;59.912;30.300;2023-03-14T10:43:43;25.55;;;6.55;;
35917;SDS011;22011;59.912;30.300;2023-03-14T10:46:12;25.65;;;6.50;;
35917;SDS011;22011;59.912;30.300;2023-03-14T10:49:03;18.60;;;5.57;;
35917;SDS011;22011;59.912;30.300;2023-03-14T10:51:34;22.08;;;5.85;;
35917;SDS011;22011;59.912;30.300;2023-03-14T10:54:09;21.45;;;5.90;;
35917;SDS011;22011;59.912;30.300;2023-03-14T10:56:40;10.93;;;5.13;;
35917;SDS011;22011;59.912;30.300;2023-03-14T10:59:11;14.00;;;5.75;;
35917;SDS011;22011;59.912;30.300;2023-03-14T11:01:41;15.77;;;7.03;;
35917;SDS011;22011;59.912;30.300;2023-03-14T11:04:19;15.38;;;7.68;;
35917;SDS011;22011;59.912;30.300;2023-03-14T11:07:01;11.20;;;5.97;;
35917;SDS011;22011;59.912;30.300;2023-03-14T11:09:38;22.13;;;5.97;;
35917;SDS011;22011;59.912;30.300;2023-03-14T11:12:16;18.38;;;5.45;;
35917;SDS011;22011;59.912;30.300;2023-03-14T11:14:58;22.92;;;7.35;;
35917;SDS011;22011;59.912;30.300;2023-03-14T11:17:30;35.42;;;6.55;;
35917;SDS011;22011;59.912;30.300;2023-03-14T11:20:12;34.03;;;7.63;;
35917;SDS011;22011;59.912;30.300;2023-03-14T11:22:54;41.75;;;7.03;;
35917;SDS011;22011;59.912;30.300;2023-03-14T11:25:29;71.63;;;11.48;;
35917;SDS011;22011;59.912;30.300;2023-03-14T11:28:07;21.67;;;7.53;;
35917;SDS011;22011;59.912;30.300;2023-03-14T11:30:43;34.95;;;6.32;;
35917;SDS011;22011;59.912;30.300;2023-03-14T11:33:17;42.15;;;8.40;;
35917;SDS011;22011;59.912;30.300;2023-03-14T11:35:51;32.42;;;7.70;;
35917;SDS011;22011;59.912;30.300;2023-03-14T11:38:29;30.88;;;10.15;;
35917;SDS011;22011;59.912;30.300;2023-03-14T11:41:01;38.70;;;8.65;;
35917;SDS011;22011;59.912;30.300;2023-03-14T11:43:32;61.15;;;9.55;;
35917;SDS011;22011;59.912;30.300;2023-03-14T11:46:07;36.65;;;8.70;;
35917;SDS011;22011;59.912;30.300;2023-03-14T11:48:39;47.78;;;7.20;;
35917;SDS011;22011;59.912;30.300;2023-03-14T11:51:13;51.22;;;8.95;;
35917;SDS011;22011;59.912;30.300;2023-03-14T11:53:48;32.03;;;7.95;;
35917;SDS011;22011;59.912;30.300;2023-03-14T11:56:24;36.55;;;8.02;;
35917;SDS011;22011;59.912;30.300;2023-03-14T11:58:57;22.73;;;7.57;;
35917;SDS011;22011;59.912;30.300;2023-03-14T12:01:34;51.10;;;9.25;;
35917;SDS011;22011;59.912;30.300;2023-03-14T12:04:13;22.27;;;6.22;;
35917;SDS011;22011;59.912;30.300;2023-03-14T12:06:48;23.35;;;6.95;;
35917;SDS011;22011;59.912;30.300;2023-03-14T12:09:16;23.57;;;5.53;;
35917;SDS011;22011;59.912;30.300;2023-03-14T12:11:47;14.18;;;5.32;;
35917;SDS011;22011;59.912;30.300;2023-03-14T12:14:23;52.00;;;9.18;;
35917;SDS011;22011;59.912;30.300;2023-03-14T12:16:54;30.90;;;8.50;;
35917;SDS011;22011;59.912;30.300;2023-03-14T12:19:33;28.70;;;7.90;;
35917;SDS011;22011;59.912;30.300;2023-03-14T12:22:07;44.20;;;8.55;;
35917;SDS011;22011;59.912;30.300;2023-03-14T12:24:44;27.58;;;7.18;;
35917;SDS011;22011;59.912;30.300;2023-03-14T12:30:33;33.25;;;7.35;;
35917;SDS011;22011;59.912;30.300;2023-03-14T12:33:12;31.98;;;9.02;;
35917;SDS011;22011;59.912;30.300;2023-03-14T12:35:49;28.67;;;7.07;;
35917;SDS011;22011;59.912;30.300;2023-03-14T12:38:18;67.13;;;9.23;;
35917;SDS011;22011;59.912;30.300;2023-03-14T12:40:56;32.78;;;7.57;;
35917;SDS011;22011;59.912;30.300;2023-03-14T12:43:30;31.02;;;7.80;;
35917;SDS011;22011;59.912;30.300;2023-03-14T12:46:14;28.20;;;8.48;;
35917;SDS011;22011;59.912;30.300;2023-03-14T12:48:47;28.30;;;7.75;;
35917;SDS011;22011;59.912;30.300;2023-03-14T12:51:16;36.85;;;9.18;;
35917;SDS011;22011;59.912;30.300;2023-03-14T12:53:54;33.47;;;8.20;;
35917;SDS011;22011;59.912;30.300;2023-03-14T12:56:40;29.92;;;8.43;;
35917;SDS011;22011;59.912;30.300;2023-03-14T12:59:30;33.05;;;7.88;;
35917;SDS011;22011;59.912;30.300;2023-03-14T13:02:13;39.72;;;8.18;;
35917;SDS011;22011;59.912;30.300;2023-03-14T13:04:47;38.40;;;8.35;;
35917;SDS011;22011;59.912;30.300;2023-03-14T13:10:25;22.75;;;9.30;;
35917;SDS011;22011;59.912;30.300;2023-03-14T13:12:54;19.83;;;8.18;;
35917;SDS011;22011;59.912;30.300;2023-03-14T13:15:26;26.58;;;9.27;;
35917;SDS011;22011;59.912;30.300;2023-03-14T13:17:59;24.75;;;8.82;;
35917;SDS011;22011;59.912;30.300;2023-03-14T13:20:30;26.02;;;8.68;;
35917;SDS011;22011;59.912;30.300;2023-03-14T13:23:00;30.05;;;9.30;;
35917;SDS011;22011;59.912;30.300;2023-03-14T13:25:30;32.85;;;12.40;;
35917;SDS011;22011;59.912;30.300;2023-03-14T13:28:00;23.60;;;8.90;;
35917;SDS011;22011;59.912;30.300;2023-03-14T13:30:35;56.08;;;11.95;;
35917;SDS011;22011;59.912;30.300;2023-03-14T13:33:06;27.13;;;8.63;;
35917;SDS011;22011;59.912;30.300;2023-03-14T13:35:38;46.38;;;10.65;;
35917;SDS011;22011;59.912;30.300;2023-03-14T13:38:13;35.97;;;9.75;;
35917;SDS011;22011;59.912;30.300;2023-03-14T13:40:44;48.15;;;11.55;;
35917;SDS011;22011;59.912;30.300;2023-03-14T13:43:20;34.70;;;12.45;;
35917;SDS011;22011;59.912;30.300;2023-03-14T13:45:53;34.28;;;11.55;;
35917;SDS011;22011;59.912;30.300;2023-03-14T13:48:25;39.88;;;11.65;;
35917;SDS011;22011;59.912;30.300;2023-03-14T13:50:56;32.50;;;11.23;;
35917;SDS011;22011;59.912;30.300;2023-03-14T13:53:27;62.45;;;12.32;;
35917;SDS011;22011;59.912;30.300;2023-03-14T13:55:55;34.03;;;10.32;;
35917;SDS011;22011;59.912;30.300;2023-03-14T13:58:24;46.97;;;9.85;;
35917;SDS011;22011;59.912;30.300;2023-03-14T14:01:04;51.22;;;11.15;;
35917;SDS011;22011;59.912;30.300;2023-03-14T14:03:38;22.48;;;9.10;;
35917;SDS011;22011;59.912;30.300;2023-03-14T14:06:08;24.67;;;9.90;;
35917;SDS011;22011;59.912;30.300;2023-03-14T14:08:43;32.85;;;9.27;;
35917;SDS011;22011;59.912;30.300;2023-03-14T14:11:14;25.58;;;10.10;;
35917;SDS011;22011;59.912;30.300;2023-03-14T14:13:48;17.50;;;9.13;;
35917;SDS011;22011;59.912;30.300;2023-03-14T14:16:18;18.95;;;9.00;;
35917;SDS011;22011;59.912;30.300;2023-03-14T14:18:52;48.33;;;10.88;;
35917;SDS011;22011;59.912;30.300;2023-03-14T14:21:21;46.22;;;10.98;;
35917;SDS011;22011;59.912;30.300;2023-03-14T14:23:49;35.88;;;10.98;;
35917;SDS011;22011;59.912;30.300;2023-03-14T14:26:18;33.90;;;10.55;;
35917;SDS011;22011;59.912;30.300;2023-03-14T14:28:46;40.00;;;10.15;;
35917;SDS011;22011;59.912;30.300;2023-03-14T14:31:20;27.85;;;10.45;;
35917;SDS011;22011;59.912;30.300;2023-03-14T14:33:54;50.58;;;11.18;;
35917;SDS011;22011;59.912;30.300;2023-03-14T14:36:24;45.10;;;9.43;;
35917;SDS011;22011;59.912;30.300;2023-03-14T14:38:56;26.05;;;9.63;;
35917;SDS011;22011;59.912;30.300;2023-03-14T14:41:31;30.48;;;10.00;;
35917;SDS011;22011;59.912;30.300;2023-03-14T14:44:02;27.38;;;9.77;;
35917;SDS011;22011;59.912;30.300;2023-03-14T14:46:32;24.35;;;9.82;;
35917;SDS011;22011;59.912;30.300;2023-03-14T14:49:03;29.85;;;10.25;;
35917;SDS011;22011;59.912;30.300;2023-03-14T14:51:34;35.88;;;10.75;;
35917;SDS011;22011;59.912;30.300;2023-03-14T14:54:12;51.85;;;15.73;;
35917;SDS011;22011;59.912;30.300;2023-03-14T14:56:45;57.08;;;12.77;;
35917;SDS011;22011;59.912;30.300;2023-03-14T14:59:19;75.88;;;16.60;;
35917;SDS011;22011;59.912;30.300;2023-03-14T15:01:54;34.05;;;15.43;;
35917;SDS011;22011;59.912;30.300;2023-03-14T15:04:23;24.45;;;14.20;;
35917;SDS011;22011;59.912;30.300;2023-03-14T15:06:51;21.55;;;12.77;;
35917;SDS011;22011;59.912;30.300;2023-03-14T15:09:19;16.63;;;10.45;;
35917;SDS011;22011;59.912;30.300;2023-03-14T15:11:47;22.48;;;11.93;;